Truckee, CA

4:10 PM PST on March 06, 2015 (GMT -0800)
Martiswoods Estates | Change Station
CLOSE
Current Station
Personal Weather Station
Location: Truckee, CA
Elevation: 6220 ft
Nearby Weather Stations

Elev 6220 ft 39.31 °N, 120.18 °W | Updated 8 seconds ago

Clear
Clear
53.2 °F
Feels Like 53.2 °F
N
0.0
Wind Variable Wind from East
Gusts 0.0 mph

Today
High -- | Low -- °F
--% Chance of Precip.
Yesterday
High -- | Low -- °F
Precip. -- in
6:26 AM 5:58 PM
Full, 99% visible
Pressure 30.33 in
Visibility 10.0 miles
Clouds Clear
Dew Point 13 °F
Humidity 20%
Rainfall in
Snow Depth Not available.
UV 1.0 out of 12
Pollen 5.60 out of 12
Air Quality Not available.
Flu Activity Not available.
METAR KTRK 062345Z 19009KT 10SM SKC 14/M08 A3033 RMK NO

More Conditions Fewer Conditions

Pressure 30.33 in
Visibility 10.0 miles
Clouds Clear
Dew Point 13 °F
Humidity 20%
Rainfall in
Snow Depth Not available.
UV 1.0 out of 12
Pollen 5.60 out of 12
Air Quality Not available.
Flu Activity Not available.
METAR KTRK 062345Z 19009KT 10SM SKC 14/M08 A3033 RMK NO

More Conditions Fewer Conditions

10-Day Weather Forecast

Almanac

Astronomy

Mar. 06, 2015 Rise Set
Actual Time
Civil Twilight
Nautical Twilight
Astronomical Twilight
Moon
Length of Visible Light
Length of Day
Tomorrow will be .
, % of the Moon is Illuminated

Today's Extremes

State Highs State Lows

Community

WunderPhotos

Upload Photos

1,803,460 photos uploaded!

WunderBlogs® & News

Nearby

Air Quality

  Air Quality AQ Index Pollutant
Not available.

Snow Depth

Station Depth Elevation

Earthquake Activity

City Distance Mag. Time & Date
Minimum magnitude displayed is 2.5.

Coastal Water Temperatures

Place Temperature

Nearby Weather Stations